Time;durP1;ratioP1;P1;durP2;ratioP2;P2;SDS_P1;SDS_P2;PMS_P1;PMS_P2;Temp;Humidity;BMP_temperature;BMP_pressure;BME280_temperature;BME280_humidity;BME280_pressure;Samples;Min_cycle;Max_cycle;Signal;HPM_P1;HPM_P2
2020/12/08 00:00:25;;;;;;;23.00;14.40;;;5.00;92.10;;;4.53;85.28;96668.91;5025552;28;20715;-73
2020/12/08 00:02:53;;;;;;;22.07;13.77;;;5.00;92.20;;;4.55;85.82;96669.63;5042001;28;21242;-73
2020/12/08 00:05:22;;;;;;;23.70;13.87;;;5.00;91.80;;;4.58;86.17;96672.00;5038599;28;20974;-73
2020/12/08 00:07:51;;;;;;;22.83;14.20;;;5.10;91.90;;;4.60;86.41;96659.00;5024166;28;21176;-73
2020/12/08 00:10:19;;;;;;;24.10;13.70;;;5.10;91.90;;;4.62;86.27;96662.31;5043529;28;20645;-73
2020/12/08 00:12:48;;;;;;;24.77;14.40;;;5.10;91.90;;;4.61;86.26;96664.03;5036036;28;20643;-73
2020/12/08 00:15:17;;;;;;;25.73;15.03;;;5.10;91.90;;;4.60;86.63;96664.16;5035811;28;20749;-73
2020/12/08 00:17:46;;;;;;;24.70;14.43;;;5.10;91.90;;;4.52;85.63;96659.50;5049572;28;20628;-73
2020/12/08 00:20:16;;;;;;;27.03;14.90;;;5.00;91.90;;;4.49;86.02;96654.56;5045233;28;20674;-73
2020/12/08 00:22:44;;;;;;;24.53;14.47;;;5.00;92.00;;;4.52;86.11;96656.94;5034943;28;20751;-73
2020/12/08 00:25:12;;;;;;;25.03;15.40;;;5.10;92.10;;;4.58;86.41;96651.34;5039178;28;20624;-73
2020/12/08 00:27:41;;;;;;;28.20;14.53;;;5.10;92.20;;;4.59;86.34;96647.03;5033521;28;20621;-73
2020/12/08 00:30:10;;;;;;;24.90;14.70;;;5.10;92.10;;;4.56;86.45;96640.31;5040368;28;20637;-74
2020/12/08 00:32:39;;;;;;;25.00;14.93;;;5.10;92.10;;;4.56;86.36;96631.75;5041323;28;20773;-73
2020/12/08 00:35:08;;;;;;;27.30;15.90;;;5.00;92.10;;;4.59;86.89;96628.97;5037537;28;20694;-73
2020/12/08 00:37:36;;;;;;;27.23;15.57;;;5.10;92.10;;;4.58;86.44;96633.28;5036242;28;20625;-73
2020/12/08 00:40:05;;;;;;;24.80;15.20;;;5.10;92.00;;;4.59;86.60;96637.53;5040731;28;20632;-72
2020/12/08 00:42:33;;;;;;;26.40;13.93;;;5.10;92.10;;;4.61;85.57;96630.50;5046684;28;20636;-73
2020/12/08 00:45:01;;;;;;;26.50;15.20;;;5.10;92.10;;;4.63;86.35;96635.56;5047987;28;20629;-73
2020/12/08 00:47:29;;;;;;;26.23;16.17;;;5.10;92.10;;;4.67;86.48;96631.84;5045315;28;21259;-73
2020/12/08 00:49:58;;;;;;;26.33;14.80;;;5.20;92.10;;;4.68;85.67;96636.91;5052666;28;20643;-73
2020/12/08 00:52:26;;;;;;;26.50;14.63;;;5.10;91.90;;;4.71;85.38;96637.50;5043793;28;20629;-73
2020/12/08 00:55:07;;;;;;;24.20;14.63;;;5.20;91.90;;;4.71;85.25;96629.75;5050517;28;20632;-73
2020/12/08 00:57:35;;;;;;;25.00;14.57;;;5.20;91.90;;;4.76;86.57;96632.03;5041733;28;20633;-73
2020/12/08 01:00:07;;;;;;;24.57;14.00;;;5.20;92.00;;;4.79;86.19;96632.63;5021454;28;20641;-73
2020/12/08 01:02:38;;;;;;;27.47;15.07;;;5.30;91.90;;;4.78;85.28;96627.56;5052368;28;20648;-73
2020/12/08 01:05:11;;;;;;;26.07;15.77;;;5.30;91.80;;;4.79;85.46;96630.03;5042832;28;20636;-73
2020/12/08 01:07:40;;;;;;;25.77;14.63;;;5.30;91.60;;;4.70;85.86;96637.59;5042290;28;20626;-73
2020/12/08 01:10:12;;;;;;;25.27;15.40;;;5.20;91.50;;;4.69;85.88;96623.88;5037075;28;20636;-73
2020/12/08 01:12:41;;;;;;;24.90;13.60;;;5.20;91.60;;;4.72;84.96;96631.41;5045348;28;20629;-73
2020/12/08 01:15:11;;;;;;;22.97;14.17;;;5.20;91.70;;;4.77;84.81;96631.09;5034976;28;21014;-73
2020/12/08 01:17:40;;;;;;;24.70;13.83;;;5.20;91.70;;;4.69;85.13;96638.53;5040383;28;20686;-73
2020/12/08 01:20:08;;;;;;;26.87;16.07;;;5.20;91.60;;;4.70;86.23;96637.59;5033990;28;21183;-73
2020/12/08 01:22:39;;;;;;;23.80;14.87;;;5.20;91.60;;;4.74;84.88;96644.22;5044615;28;20700;-73
2020/12/08 01:25:07;;;;;;;27.10;14.93;;;5.20;91.60;;;4.70;85.60;96648.75;5030377;28;20736;-73
2020/12/08 01:27:38;;;;;;;27.47;15.70;;;5.20;91.60;;;4.70;84.83;96642.78;5022000;28;20625;-73
2020/12/08 01:30:07;;;;;;;28.93;15.90;;;5.20;91.60;;;4.73;84.79;96645.13;5036695;28;20629;-72
2020/12/08 01:32:39;;;;;;;26.70;15.13;;;5.20;91.60;;;4.75;84.96;96651.00;5035633;28;21081;-73
2020/12/08 01:35:08;;;;;;;28.20;15.07;;;5.20;91.60;;;4.81;85.62;96648.88;5037450;28;20647;-73
2020/12/08 01:37:36;;;;;;;24.80;14.50;;;5.30;91.70;;;4.83;84.92;96641.00;5026405;28;20674;-73
2020/12/08 01:40:06;;;;;;;25.50;14.63;;;5.30;91.60;;;4.87;85.52;96643.28;5050104;28;20712;-73
2020/12/08 01:42:34;;;;;;;24.13;14.73;;;5.30;91.50;;;4.82;84.17;96631.59;5039649;28;20617;-73
2020/12/08 01:45:03;;;;;;;24.33;14.60;;;5.30;91.20;;;4.77;84.07;96636.28;5015413;28;20629;-73
2020/12/08 01:47:31;;;;;;;23.73;15.70;;;5.30;91.20;;;4.67;85.55;96637.00;5020758;28;20672;-73
2020/12/08 01:50:01;;;;;;;25.17;14.23;;;5.20;91.10;;;4.67;85.01;96634.41;5045885;28;20982;-73
2020/12/08 01:52:32;;;;;;;26.03;15.53;;;5.20;91.30;;;4.66;84.71;96631.03;5041512;28;20741;-73
2020/12/08 01:55:04;;;;;;;27.50;16.27;;;5.20;91.30;;;4.65;84.45;96631.94;5049796;28;20621;-72
2020/12/08 01:57:36;;;;;;;27.30;15.60;;;5.20;91.40;;;4.67;84.38;96627.50;5037569;28;20647;-73
2020/12/08 02:00:08;;;;;;;25.33;15.30;;;5.20;91.40;;;4.63;85.04;96631.22;5034303;28;20629;-73
2020/12/08 02:02:42;;;;;;;28.43;15.80;;;5.10;91.20;;;4.61;84.89;96629.69;5049703;28;20652;-73
2020/12/08 02:05:21;;;;;;;26.87;14.90;;;5.10;91.20;;;4.58;85.25;96637.63;5045957;28;21232;-73
2020/12/08 02:07:50;;;;;;;26.20;14.97;;;5.10;91.30;;;4.55;85.40;96638.66;5031894;28;20633;-73
2020/12/08 02:10:18;;;;;;;28.00;16.00;;;5.00;91.30;;;4.59;84.94;96634.13;5043212;28;20635;-73
2020/12/08 02:12:46;;;;;;;27.20;15.47;;;5.10;91.40;;;4.56;84.43;96627.41;5046099;28;20735;-73
2020/12/08 02:15:17;;;;;;;27.20;15.00;;;5.10;91.40;;;4.51;85.90;96611.41;5040733;28;20668;-73
2020/12/08 02:17:47;;;;;;;29.53;16.37;;;5.00;91.70;;;4.47;85.23;96620.28;5029792;28;20732;-73
2020/12/08 02:20:16;;;;;;;28.33;16.50;;;5.00;91.40;;;4.52;85.77;96617.41;5045169;28;20620;-73
2020/12/08 02:22:44;;;;;;;22.67;13.87;;;5.00;91.60;;;4.45;85.46;96616.16;5040088;28;21271;-72
2020/12/08 02:25:13;;;;;;;27.73;14.80;;;5.00;91.60;;;4.46;85.83;96617.81;5040939;28;21183;-72
2020/12/08 02:27:42;;;;;;;28.00;15.70;;;4.90;91.50;;;4.36;85.02;96619.34;5033601;28;20637;-73
2020/12/08 02:30:11;;;;;;;27.43;16.33;;;4.90;91.50;;;4.26;85.77;96620.91;5034376;28;20703;-73
2020/12/08 02:32:39;;;;;;;30.60;16.03;;;4.80;91.70;;;4.21;87.01;96603.16;5035151;28;20645;-73
2020/12/08 02:35:09;;;;;;;28.17;15.30;;;4.80;91.80;;;4.18;86.79;96604.28;5029729;28;20621;-73
2020/12/08 02:37:39;;;;;;;31.27;17.80;;;4.70;92.00;;;4.16;85.72;96601.81;5028497;28;20625;-73
2020/12/08 02:40:08;;;;;;;28.93;15.80;;;4.70;92.10;;;4.17;86.89;96606.06;5044395;28;20641;-73
2020/12/08 02:42:39;;;;;;;26.40;15.37;;;4.70;92.10;;;4.17;86.32;96615.56;5034391;28;20644;-73
2020/12/08 02:45:07;;;;;;;29.30;15.90;;;4.70;92.10;;;4.15;86.77;96614.81;5053084;28;21060;-73
2020/12/08 02:47:35;;;;;;;27.80;16.60;;;4.70;92.10;;;4.10;86.32;96615.13;5031777;28;21041;-72
2020/12/08 02:50:04;;;;;;;26.63;15.67;;;4.60;92.10;;;4.12;87.29;96617.59;5036438;28;20622;-72
2020/12/08 02:52:33;;;;;;;30.30;15.90;;;4.60;92.10;;;4.11;87.31;96621.13;5047372;28;20688;-73
2020/12/08 02:55:02;;;;;;;30.23;16.97;;;4.60;92.20;;;4.01;87.60;96617.50;5037126;28;21184;-72
2020/12/08 02:57:36;;;;;;;26.97;14.97;;;4.60;92.30;;;3.97;87.30;96611.72;5035193;28;20632;-73
2020/12/08 03:00:06;;;;;;;29.53;16.10;;;4.50;92.40;;;4.02;87.07;96614.00;5034639;28;20621;-73
2020/12/08 03:02:34;;;;;;;28.33;15.57;;;4.50;92.40;;;4.06;86.71;96623.16;5046322;28;20634;-73
2020/12/08 03:05:02;;;;;;;27.50;15.30;;;4.50;92.40;;;4.00;87.13;96621.00;5036907;28;20636;-73
2020/12/08 03:07:30;;;;;;;28.67;15.90;;;4.50;92.50;;;4.03;87.25;96616.47;5049713;28;20613;-73
2020/12/08 03:10:00;;;;;;;26.43;15.10;;;4.50;92.60;;;4.08;86.72;96606.66;5045941;28;21180;-73
2020/12/08 03:12:32;;;;;;;27.50;15.33;;;4.60;92.50;;;4.03;87.56;96607.91;5038701;28;20707;-73
2020/12/08 03:15:00;;;;;;;29.00;15.47;;;4.60;92.40;;;3.99;86.85;96601.31;5023335;28;20692;-73
2020/12/08 03:17:37;;;;;;;28.87;15.87;;;4.50;92.40;;;3.89;87.17;96597.69;5023823;28;20632;-73
2020/12/08 03:20:07;;;;;;;26.80;15.80;;;4.40;92.40;;;3.86;86.88;96600.47;5046616;28;20745;-73
2020/12/08 03:22:41;;;;;;;28.10;15.70;;;4.40;92.40;;;3.79;87.67;96601.81;5055529;28;20716;-73
2020/12/08 03:25:11;;;;;;;30.80;16.43;;;4.30;92.50;;;3.77;87.67;96611.38;5045408;28;20621;-72
2020/12/08 03:27:40;;;;;;;28.87;14.83;;;4.30;92.60;;;3.80;86.65;96614.59;5040285;28;20688;-73
2020/12/08 03:30:08;;;;;;;25.93;14.20;;;4.30;92.50;;;3.76;86.41;96614.91;5037422;28;21021;-73
2020/12/08 03:32:37;;;;;;;31.53;15.60;;;4.30;92.50;;;3.77;86.95;96611.38;5047554;28;21033;-73
2020/12/08 03:35:09;;;;;;;28.83;15.70;;;4.30;92.60;;;3.70;87.53;96604.13;5041451;28;20629;-73
2020/12/08 03:37:37;;;;;;;28.10;15.73;;;4.20;92.50;;;3.68;87.58;96603.41;5040211;28;20645;-73
2020/12/08 03:40:10;;;;;;;31.57;16.50;;;4.20;92.60;;;3.62;87.00;96604.63;5050311;28;20633;-73
2020/12/08 03:42:37;;;;;;;27.00;15.60;;;4.20;92.60;;;3.60;87.23;96593.63;5046187;28;21169;-73
2020/12/08 03:45:07;;;;;;;30.27;16.70;;;4.20;92.60;;;3.51;87.80;96601.94;5036283;28;20668;-72
2020/12/08 03:47:52;;;;;;;27.83;14.70;;;4.10;92.60;;;3.61;87.38;96603.00;5043274;28;20632;-74
2020/12/08 03:50:24;;;;;;;27.37;15.50;;;4.10;92.60;;;3.56;87.36;96602.47;5037023;28;20641;-73
2020/12/08 03:52:56;;;;;;;26.73;15.27;;;4.10;92.70;;;3.58;87.48;96598.06;5019661;28;20669;-73
2020/12/08 03:55:24;;;;;;;27.57;15.10;;;4.10;92.70;;;3.61;87.73;96604.75;5031055;28;20684;-73
2020/12/08 03:57:51;;;;;;;28.67;16.97;;;4.10;92.60;;;3.62;86.95;96599.47;5034308;28;21080;-72
2020/12/08 04:00:24;;;;;;;28.83;16.90;;;4.10;92.60;;;3.65;87.00;96595.88;5041112;28;20636;-73
2020/12/08 04:02:53;;;;;;;31.50;16.57;;;4.20;92.70;;;3.70;87.27;96594.69;5037811;28;20661;-73
2020/12/08 04:05:24;;;;;;;33.20;17.67;;;4.20;92.60;;;3.71;86.71;96605.81;5021314;28;20625;-73
2020/12/08 04:07:52;;;;;;;29.87;16.37;;;4.20;92.50;;;3.72;87.07;96604.88;5049211;28;20713;-73
2020/12/08 04:10:24;;;;;;;30.23;16.07;;;4.20;92.40;;;3.73;86.47;96602.22;5048628;28;20648;-73
2020/12/08 04:12:53;;;;;;;26.80;15.00;;;4.20;92.30;;;3.75;87.15;96600.34;5040885;28;21236;-73
2020/12/08 04:15:21;;;;;;;30.20;16.50;;;4.30;92.40;;;3.84;86.62;96592.00;5047730;28;20676;-73
2020/12/08 04:17:49;;;;;;;31.60;16.97;;;4.30;92.30;;;3.83;86.40;96603.25;5053654;28;20620;-73
2020/12/08 04:20:17;;;;;;;31.27;16.93;;;4.30;92.10;;;3.80;86.27;96606.00;5046480;28;20691;-73
2020/12/08 04:22:44;;;;;;;26.87;15.83;;;4.30;92.00;;;3.80;86.95;96612.03;5044174;28;20636;-73
2020/12/08 04:25:16;;;;;;;28.43;16.67;;;4.30;92.00;;;3.80;85.92;96606.00;5051539;28;20679;-73
2020/12/08 04:27:44;;;;;;;31.40;16.07;;;4.40;92.00;;;3.84;86.63;96603.13;5035759;28;20629;-73
2020/12/08 04:30:11;;;;;;;26.40;16.00;;;4.40;92.00;;;3.87;85.29;96599.53;5035282;28;20724;-73
2020/12/08 04:32:43;;;;;;;28.10;14.97;;;4.40;91.80;;;3.78;85.72;96598.38;5038330;28;20652;-73
2020/12/08 04:35:12;;;;;;;27.73;14.60;;;4.30;91.80;;;3.82;85.79;96604.19;5038073;28;21204;-73
2020/12/08 04:37:39;;;;;;;29.13;15.83;;;4.40;91.80;;;3.81;85.63;96593.03;5034425;28;20635;-73
2020/12/08 04:40:07;;;;;;;28.00;16.03;;;4.30;91.70;;;3.85;85.41;96593.69;5040171;28;20632;-73
2020/12/08 04:42:43;;;;;;;29.70;17.10;;;4.40;91.70;;;3.86;85.74;96587.56;5048342;28;20717;-73
2020/12/08 04:45:11;;;;;;;25.27;14.77;;;4.40;91.60;;;3.89;85.71;96584.78;5039302;28;20651;-72
2020/12/08 04:47:43;;;;;;;29.70;16.63;;;4.40;91.50;;;3.87;86.01;96595.19;5042626;28;21069;-73
2020/12/08 04:50:13;;;;;;;26.87;15.17;;;4.40;91.50;;;3.89;86.13;96595.09;5038802;28;21042;-73
2020/12/08 04:52:41;;;;;;;25.57;14.50;;;4.40;91.40;;;3.89;85.88;96595.09;5048082;28;20684;-73
2020/12/08 04:55:09;;;;;;;26.27;15.43;;;4.40;91.30;;;3.90;85.15;96591.59;5035819;28;20629;-73
2020/12/08 04:57:39;;;;;;;27.10;14.70;;;4.40;91.20;;;3.92;84.74;96593.13;5045109;28;20637;-72
2020/12/08 05:00:09;;;;;;;24.70;13.80;;;4.50;91.20;;;3.91;84.85;96603.53;5045892;28;20672;-73
2020/12/08 05:02:46;;;;;;;27.07;15.50;;;4.50;91.20;;;3.92;84.88;96602.63;5043648;28;20641;-73
2020/12/08 05:05:15;;;;;;;27.60;15.37;;;4.50;91.20;;;3.93;85.48;96612.03;5047398;28;20734;-71
2020/12/08 05:07:43;;;;;;;26.57;14.93;;;4.50;91.10;;;3.94;84.94;96613.66;5051350;28;20632;-72
2020/12/08 05:10:11;;;;;;;25.30;15.10;;;4.50;91.10;;;3.94;84.25;96608.50;5044064;28;20629;-72
2020/12/08 05:12:39;;;;;;;24.63;13.97;;;4.50;91.00;;;3.91;84.47;96611.28;5036009;28;20651;-72
2020/12/08 05:15:16;;;;;;;26.90;14.97;;;4.50;91.00;;;3.82;84.77;96601.59;5048596;28;20718;-72
2020/12/08 05:17:44;;;;;;;27.47;15.90;;;4.40;90.90;;;3.78;85.35;96605.31;5026462;28;20997;-72
2020/12/08 05:20:15;;;;;;;27.60;16.30;;;4.30;90.90;;;3.77;84.33;96611.38;5037788;28;21172;-72
2020/12/08 05:22:54;;;;;;;25.50;15.00;;;4.30;91.00;;;3.67;85.34;96596.59;5038381;28;20618;-72
2020/12/08 05:25:25;;;;;;;27.37;16.00;;;4.30;91.30;;;3.63;84.90;96593.41;5034857;28;20740;-72
2020/12/08 05:27:55;;;;;;;27.43;15.67;;;4.20;91.10;;;3.57;85.23;96593.00;5039908;28;20632;-73
2020/12/08 05:30:23;;;;;;;26.40;15.77;;;4.10;91.20;;;3.54;85.93;96599.16;5034185;28;20635;-72
2020/12/08 05:32:51;;;;;;;26.30;16.13;;;4.10;91.30;;;3.53;86.06;96607.00;5034664;28;20748;-72
2020/12/08 05:35:21;;;;;;;27.57;15.77;;;4.10;91.50;;;3.51;86.05;96594.22;5037042;28;20776;-72
2020/12/08 05:37:51;;;;;;;29.60;16.37;;;4.10;91.50;;;3.53;86.13;96597.50;5046893;28;20733;-73
2020/12/08 05:40:20;;;;;;;30.13;16.50;;;4.10;91.60;;;3.54;85.45;96591.44;5033652;28;20663;-72
2020/12/08 05:42:51;;;;;;;28.40;15.27;;;4.00;91.60;;;3.54;85.71;96588.03;5035255;28;20632;-73
2020/12/08 05:45:23;;;;;;;28.57;15.53;;;4.10;91.60;;;3.55;85.93;96587.94;5035860;28;20653;-73
2020/12/08 05:47:53;;;;;;;24.90;14.63;;;4.10;91.60;;;3.49;86.34;96601.22;5034297;28;20625;-72
2020/12/08 05:50:23;;;;;;;26.50;15.30;;;4.10;91.60;;;3.50;85.61;96597.72;5038876;28;20957;-73
2020/12/08 05:52:53;;;;;;;46.50;24.17;;;4.00;91.50;;;3.48;85.64;96596.16;5052999;28;20687;-73
2020/12/08 05:55:22;;;;;;;35.17;18.67;;;4.00;91.50;;;3.46;85.71;96585.97;5040387;28;20649;-73
2020/12/08 05:57:51;;;;;;;42.40;23.83;;;4.00;91.60;;;3.34;86.50;96575.63;5030919;28;20999;-73
2020/12/08 06:00:25;;;;;;;40.70;25.17;;;3.90;91.60;;;3.25;86.19;96583.09;5046039;28;20672;-72
2020/12/08 06:02:53;;;;;;;45.00;27.30;;;3.90;91.80;;;3.26;86.39;96577.03;5047964;28;20636;-73
2020/12/08 06:05:28;;;;;;;36.57;23.20;;;3.80;91.80;;;3.26;86.66;96572.69;5035412;28;20625;-72
2020/12/08 06:07:55;;;;;;;41.17;26.10;;;3.80;91.90;;;3.17;86.81;96569.91;5048648;28;20632;-72
2020/12/08 06:10:23;;;;;;;40.27;24.07;;;3.80;91.90;;;3.16;87.29;96568.22;5039813;28;20717;-72
2020/12/08 06:12:59;;;;;;;35.87;19.87;;;3.80;92.10;;;3.07;87.37;96561.13;5032747;28;20696;-74
2020/12/08 06:15:38;;;;;;;39.47;22.80;;;3.70;92.30;;;3.04;87.78;96576.75;5039306;28;20664;-73
2020/12/08 06:18:07;;;;;;;34.63;19.10;;;3.60;92.60;;;3.13;87.75;96581.31;5031434;28;20707;-72
2020/12/08 06:20:37;;;;;;;30.67;17.27;;;3.70;92.70;;;3.22;87.61;96591.00;5045122;28;20715;-74
2020/12/08 06:23:06;;;;;;;53.93;29.50;;;3.70;92.70;;;3.28;87.74;96591.47;5033007;28;20629;-71
2020/12/08 06:25:34;;;;;;;33.03;18.63;;;3.80;92.70;;;3.30;87.55;96594.75;5038012;28;20634;-69
2020/12/08 06:28:04;;;;;;;37.00;19.13;;;3.80;92.60;;;3.29;87.36;96603.41;5037381;28;20724;-71
2020/12/08 06:30:32;;;;;;;32.40;18.83;;;3.80;92.60;;;3.26;87.72;96602.78;5048597;28;20619;-71
2020/12/08 06:33:02;;;;;;;31.57;18.27;;;3.80;92.70;;;3.23;87.82;96598.66;5052600;28;20641;-70
2020/12/08 06:35:33;;;;;;;33.50;18.10;;;3.80;92.70;;;3.28;87.74;96609.50;5052650;28;20608;-70
2020/12/08 06:38:16;;;;;;;30.37;16.93;;;3.80;92.80;;;3.18;87.74;96613.56;5016874;28;20671;-70
2020/12/08 06:40:52;;;;;;;39.23;19.07;;;3.80;92.90;;;3.16;88.13;96597.41;5032726;28;20656;-70
2020/12/08 06:43:21;;;;;;;39.23;20.00;;;3.70;93.00;;;3.26;87.69;96598.44;5044956;28;20973;-71
2020/12/08 06:45:49;;;;;;;36.67;23.17;;;3.80;93.00;;;3.25;87.92;96599.41;5033623;28;20621;-71
2020/12/08 06:48:18;;;;;;;39.20;22.87;;;3.80;92.90;;;3.22;87.41;96601.31;5044534;28;20692;-71
2020/12/08 06:50:47;;;;;;;30.30;17.57;;;3.80;93.30;;;3.27;87.55;96599.28;5041940;28;20637;-71
2020/12/08 06:53:16;;;;;;;34.27;17.03;;;3.80;92.90;;;3.31;87.99;96597.25;5033339;28;20685;-71
2020/12/08 06:55:47;;;;;;;34.30;17.57;;;3.80;92.80;;;3.28;87.61;96597.44;5033123;28;20630;-71
2020/12/08 06:58:15;;;;;;;33.47;17.50;;;3.80;92.70;;;3.29;87.49;96591.38;5032850;28;20633;-71
2020/12/08 07:00:44;;;;;;;30.13;17.37;;;3.80;92.70;;;3.24;87.69;96602.06;5041619;28;20636;-71
2020/12/08 07:03:13;;;;;;;29.10;17.03;;;3.80;92.70;;;3.25;87.52;96595.97;5038589;28;20636;-71
2020/12/08 07:05:41;;;;;;;33.23;17.80;;;3.80;92.70;;;3.28;86.85;96594.88;5031726;28;21014;-71
2020/12/08 07:08:10;;;;;;;31.60;17.20;;;3.80;92.70;;;3.31;86.63;96594.66;5030502;28;20668;-71
2020/12/08 07:10:40;;;;;;;28.53;16.57;;;3.80;92.60;;;3.27;87.44;96606.06;5033805;28;20664;-71
2020/12/08 07:13:16;;;;;;;29.20;15.40;;;3.80;92.60;;;3.31;86.93;96609.31;5050838;28;20715;-71
2020/12/08 07:15:44;;;;;;;33.43;16.93;;;3.80;92.60;;;3.31;86.83;96611.88;5053869;28;21227;-71
2020/12/08 07:18:13;;;;;;;29.83;16.83;;;3.90;92.60;;;3.33;86.33;96631.44;5036246;28;20629;-71
2020/12/08 07:20:43;;;;;;;29.73;17.00;;;3.90;92.40;;;3.24;86.95;96631.22;5047579;28;20637;-71
2020/12/08 07:23:12;;;;;;;33.73;18.63;;;3.80;92.30;;;3.14;87.02;96635.28;5036375;28;20652;-71
2020/12/08 07:25:40;;;;;;;33.93;19.03;;;3.70;92.40;;;3.14;86.98;96637.03;5044629;28;20667;-71
2020/12/08 07:28:08;;;;;;;34.10;17.60;;;3.70;92.50;;;3.07;87.73;96635.78;5042833;28;20625;-70
2020/12/08 07:30:36;;;;;;;34.33;18.27;;;3.70;92.50;;;3.13;87.28;96643.94;5044858;28;20633;-71
2020/12/08 07:33:13;;;;;;;33.70;18.07;;;3.70;92.60;;;3.16;87.09;96643.75;5050996;28;21406;-71
2020/12/08 07:35:45;;;;;;;32.80;18.17;;;3.70;92.60;;;3.24;86.76;96632.97;5018021;28;20612;-71
2020/12/08 07:38:13;;;;;;;30.80;17.73;;;3.70;92.50;;;3.25;86.45;96638.03;5035684;28;22804;-71
2020/12/08 07:40:42;;;;;;;33.10;18.00;;;3.80;92.50;;;3.27;87.15;96641.31;5042550;28;21080;-71
2020/12/08 07:43:10;;;;;;;30.40;17.50;;;3.80;92.40;;;3.30;86.29;96652.25;5046162;28;20672;-71
2020/12/08 07:45:46;;;;;;;33.43;17.03;;;3.80;92.30;;;3.38;86.17;96650.03;5046541;28;20633;-71
2020/12/08 07:48:19;;;;;;;30.00;17.13;;;3.90;92.50;;;3.50;85.44;96649.25;5040906;28;20655;-71
2020/12/08 07:50:47;;;;;;;34.10;18.43;;;4.00;92.30;;;3.60;85.86;96646.91;5035654;28;20644;-71
2020/12/08 07:53:15;;;;;;;31.30;16.63;;;4.10;92.00;;;3.78;84.71;96649.13;5045787;28;20662;-71
2020/12/08 07:55:45;;;;;;;29.00;15.70;;;4.20;91.90;;;4.00;84.14;96654.50;5036228;28;20618;-69
2020/12/08 07:58:13;;;;;;;32.73;17.47;;;4.40;91.70;;;4.13;83.68;96655.38;5045754;28;21064;-71
2020/12/08 08:00:41;;;;;;;29.10;16.10;;;4.50;91.40;;;4.24;83.59;96658.91;5051952;28;20624;-72
2020/12/08 08:03:09;;;;;;;27.07;14.97;;;4.60;91.10;;;4.26;82.87;96657.84;5036774;28;20622;-71
2020/12/08 08:05:36;;;;;;;28.60;16.53;;;4.70;90.70;;;4.27;82.90;96656.13;5055072;28;20678;-71
2020/12/08 08:08:04;;;;;;;32.17;17.60;;;4.70;90.50;;;4.26;83.46;96647.53;5038343;28;20668;-71
2020/12/08 08:10:32;;;;;;;29.00;16.43;;;4.80;90.30;;;4.22;83.00;96650.41;5038057;28;20652;-71
2020/12/08 08:13:01;;;;;;;28.50;16.33;;;4.70;90.20;;;4.15;83.00;96658.66;5035411;28;20749;-71
2020/12/08 08:15:29;;;;;;;30.23;17.17;;;4.70;90.10;;;4.02;83.29;96661.22;5044635;28;20657;-71
2020/12/08 08:17:57;;;;;;;30.67;18.07;;;4.60;90.10;;;3.97;83.81;96657.28;5035369;28;20679;-72
2020/12/08 08:20:25;;;;;;;29.40;16.07;;;4.50;90.30;;;4.00;83.37;96657.94;5034896;28;21230;-71
2020/12/08 08:22:57;;;;;;;28.87;16.27;;;4.50;90.30;;;3.93;83.71;96655.84;5034058;28;20721;-72
2020/12/08 08:25:24;;;;;;;30.90;17.37;;;4.50;90.40;;;3.91;83.71;96657.69;5034386;28;20633;-71
2020/12/08 08:27:52;;;;;;;29.83;18.37;;;4.40;90.50;;;3.98;84.44;96661.53;5034823;28;20674;-71
2020/12/08 08:30:21;;;;;;;30.57;16.47;;;4.50;90.60;;;3.92;83.52;96667.09;5038082;28;20683;-71
2020/12/08 08:32:49;;;;;;;27.63;16.10;;;4.40;90.80;;;3.89;84.52;96667.28;5036153;28;20659;-71
2020/12/08 08:35:16;;;;;;;28.13;16.57;;;4.40;90.40;;;3.89;83.69;96664.72;5050801;28;20633;-71
2020/12/08 08:37:44;;;;;;;32.70;17.70;;;4.40;90.40;;;3.90;84.47;96658.63;5037803;28;20640;-71
2020/12/08 08:40:13;;;;;;;27.73;16.60;;;4.40;90.30;;;3.93;83.69;96654.09;5051754;28;20678;-71
2020/12/08 08:42:41;;;;;;;29.70;16.10;;;4.40;90.40;;;3.84;83.62;96656.47;5048376;28;20617;-71
2020/12/08 08:45:08;;;;;;;32.93;16.93;;;4.30;90.30;;;3.83;83.75;96660.78;5035373;28;20711;-71
2020/12/08 08:47:37;;;;;;;26.10;14.93;;;4.30;90.60;;;3.89;83.98;96664.72;5035032;28;20625;-71
2020/12/08 08:50:05;;;;;;;31.03;16.00;;;4.30;90.80;;;3.99;83.89;96666.59;5033179;28;21135;-71
2020/12/08 08:52:33;;;;;;;30.43;17.17;;;4.30;90.90;;;4.05;83.61;96668.78;5034683;28;20660;-71
2020/12/08 08:55:01;;;;;;;28.60;16.83;;;4.40;91.00;;;4.24;84.20;96669.22;5047509;28;20756;-71
2020/12/08 08:57:29;;;;;;;26.50;15.40;;;4.50;91.40;;;4.52;83.61;96669.00;5033884;28;20731;-71
2020/12/08 08:59:56;;;;;;;26.57;16.30;;;4.80;91.30;;;4.91;83.02;96677.44;5034811;28;20676;-71
2020/12/08 09:02:24;;;;;;;29.43;16.23;;;5.10;91.50;;;5.26;82.58;96677.50;5034530;28;20716;-71
2020/12/08 09:04:54;;;;;;;26.00;14.60;;;5.50;91.10;;;5.46;80.51;96691.56;5033124;28;21060;-71
2020/12/08 09:07:23;;;;;;;27.37;16.40;;;5.70;90.00;;;5.60;80.51;96682.72;5034143;28;21040;-71
2020/12/08 09:09:51;;;;;;;25.57;14.53;;;5.90;89.30;;;5.53;78.72;96688.44;5047482;28;20647;-71
2020/12/08 09:12:19;;;;;;;28.37;16.77;;;5.90;86.00;;;5.51;79.43;96684.34;5052651;28;20656;-71
2020/12/08 09:14:49;;;;;;;28.17;15.90;;;5.90;86.00;;;5.52;79.26;96685.97;5031304;28;20651;-71
2020/12/08 09:17:17;;;;;;;38.00;20.80;;;5.90;85.70;;;5.64;79.74;96688.53;5043913;28;20640;-71
2020/12/08 09:19:45;;;;;;;31.03;18.10;;;6.00;86.60;;;5.84;80.03;96690.53;5051306;28;20640;-71
2020/12/08 09:22:13;;;;;;;30.40;17.80;;;6.20;87.30;;;6.01;78.72;96690.13;5048208;28;20629;-72
2020/12/08 09:24:41;;;;;;;27.83;16.80;;;6.30;86.50;;;6.12;78.65;96686.66;5049359;28;20613;-71
2020/12/08 09:27:09;;;;;;;25.90;16.07;;;6.40;86.00;;;6.16;77.58;96688.09;5035760;28;21013;-71
2020/12/08 09:29:37;;;;;;;25.37;16.07;;;6.50;84.30;;;6.07;77.44;96679.34;5033805;28;20648;-71
2020/12/08 09:32:04;;;;;;;26.50;15.90;;;6.40;83.60;;;6.10;77.86;96682.50;5033962;28;20699;-72
2020/12/08 09:34:32;;;;;;;27.03;16.13;;;6.50;83.80;;;6.08;77.16;96681.81;5033286;28;20625;-71
2020/12/08 09:37:01;;;;;;;28.50;15.80;;;6.50;83.10;;;5.98;76.82;96673.06;5035153;28;20676;-71
2020/12/08 09:39:30;;;;;;;28.30;16.73;;;6.40;82.20;;;6.02;77.26;96668.50;5032379;28;20621;-71
2020/12/08 09:41:59;;;;;;;28.73;16.77;;;6.40;82.70;;;6.09;77.88;96666.16;5033269;28;21040;-71
2020/12/08 09:44:28;;;;;;;24.73;14.87;;;6.50;83.50;;;6.15;77.45;96680.44;5032462;28;20680;-71
2020/12/08 09:46:56;;;;;;;27.17;17.00;;;6.50;83.40;;;6.24;78.04;96674.53;5032637;28;20683;-72
2020/12/08 09:49:25;;;;;;;29.17;18.20;;;6.60;84.10;;;6.31;77.44;96679.16;5031717;28;20640;-71
2020/12/08 09:51:53;;;;;;;26.53;15.47;;;6.70;83.00;;;6.41;76.60;96664.59;5033018;28;20637;-72
2020/12/08 09:54:21;;;;;;;25.40;15.37;;;6.80;82.40;;;6.42;75.67;96668.84;5033142;28;20640;-71
2020/12/08 09:56:49;;;;;;;26.23;15.87;;;6.80;81.30;;;6.48;76.44;96668.41;5033169;28;21266;-72
2020/12/08 09:59:17;;;;;;;26.73;15.43;;;6.80;82.20;;;6.60;76.62;96680.44;5035021;28;21133;-71
2020/12/08 10:01:45;;;;;;;23.97;14.40;;;6.90;81.80;;;6.68;75.64;96684.06;5034425;28;21247;-71
2020/12/08 10:04:14;;;;;;;23.83;15.43;;;7.00;81.40;;;6.75;75.70;96687.00;5033446;28;20613;-71
2020/12/08 10:06:44;;;;;;;25.17;15.37;;;7.10;80.90;;;6.66;76.37;96678.19;5033138;28;20664;-71
2020/12/08 10:09:13;;;;;;;26.10;15.93;;;7.10;81.00;;;6.74;75.63;96672.44;5036851;28;20700;-71
2020/12/08 10:11:41;;;;;;;27.10;16.00;;;7.10;80.90;;;6.74;75.71;96669.84;5044551;28;21012;-71
2020/12/08 10:14:10;;;;;;;27.00;16.77;;;7.10;80.70;;;6.74;75.12;96669.84;5039723;28;20674;-71
2020/12/08 10:16:38;;;;;;;25.53;15.10;;;7.10;80.30;;;6.64;75.38;96669.69;5032558;28;20657;-72
2020/12/08 10:19:06;;;;;;;23.57;13.60;;;7.10;80.50;;;6.60;75.54;96667.47;5032064;28;20629;-71
2020/12/08 10:21:35;;;;;;;27.90;15.17;;;7.10;80.20;;;6.52;75.96;96667.19;5031713;28;20614;-71
2020/12/08 10:24:06;;;;;;;27.40;16.03;;;7.00;80.50;;;6.52;76.00;96664.63;5047172;28;20696;-72
2020/12/08 10:26:34;;;;;;;25.30;15.07;;;7.00;80.60;;;6.54;76.68;96659.31;5032855;28;20607;-72
2020/12/08 10:29:02;;;;;;;26.23;15.60;;;7.00;81.20;;;6.47;76.67;96666.72;5041917;28;20732;-71